CheckWX is a tool to help pilots better visualize weather data.  It is not intended as a substitute for an official pre-flight weather briefing.

06:09:56 UTC

KPPO METAR
La Porte Municipal Airport
La Porte, Indiana, USA
Current

35 mins ago

KPPO 230535Z AUTO 20011KT 10SM CLR 18/11 A2986 RMK AO2 LTG DSNT N AND SE T01760110
Observed
Apr-23 @ 05:35 UTC
Wind
  • 200° at 11 KTS
Visibility
10 SM
Flight Rules
VFR
Cloud Levels
  • Clear skies
Temperature
18°C / 64°F
Dewpoint
11°C / 52°F
Humidity
64%
Altimeter
29.86" Hg
Pressure
1011.22 hPa
Previous

55 mins ago

KPPO 230515Z AUTO 20008KT 10SM CLR 18/11 A2987 RMK AO2 LTG DSNT NW T01770110
Observed
Apr-23 @ 05:15 UTC
Wind
  • 200° at 8 KTS
Visibility
10 SM
Flight Rules
VFR
Cloud Levels
  • Clear skies
Temperature
18°C / 64°F
Dewpoint
11°C / 52°F
Humidity
64%
Altimeter
29.87" Hg
Pressure
1011.52 hPa
Previous

1 hour ago

KPPO 230455Z AUTO 17006KT 10SM CLR 18/11 A2987 RMK AO2 LTG DSNT E AND NW T01800110
Observed
Apr-23 @ 04:55 UTC
Wind
  • 170° at 6 KTS
Visibility
10 SM
Flight Rules
VFR
Cloud Levels
  • Clear skies
Temperature
18°C / 64°F
Dewpoint
11°C / 52°F
Humidity
64%
Altimeter
29.87" Hg
Pressure
1011.52 hPa